Time;durP1;ratioP1;P1;durP2;ratioP2;P2;SDS_P1;SDS_P2;PMS_P1;PMS_P2;Temp;Humidity;BMP_temperature;BMP_pressure;BME280_temperature;BME280_humidity;BME280_pressure;Samples;Min_cycle;Max_cycle;Signal;HPM_P1;HPM_P2
2024/03/13 00:01:19;;;;;;;38.13;20.95;;;;;;;;;;5005569;28;20294;-44
2024/03/13 00:03:45;;;;;;;34.15;20.15;;;;;;;;;;5005456;28;20029;-44
2024/03/13 00:06:12;;;;;;;29.60;19.90;;;;;;;;;;5005304;28;20022;-45
2024/03/13 00:08:39;;;;;;;30.77;19.98;;;;;;;;;;5005231;28;20034;-41
2024/03/13 00:11:06;;;;;;;28.55;20.25;;;;;;;;;;5005525;28;20305;-42
2024/03/13 00:13:32;;;;;;;29.67;19.80;;;;;;;;;;5005122;28;20341;-47
2024/03/13 00:15:59;;;;;;;31.40;19.63;;;;;;;;;;5005045;28;20030;-42
2024/03/13 00:18:26;;;;;;;36.10;20.65;;;;;;;;;;5005027;28;20026;-45
2024/03/13 00:20:52;;;;;;;42.17;21.60;;;;;;;;;;5004853;28;20072;-45
2024/03/13 00:23:19;;;;;;;29.55;20.10;;;;;;;;;;5004951;28;20022;-49
2024/03/13 00:25:45;;;;;;;34.85;21.27;;;;;;;;;;5004926;28;20356;-42
2024/03/13 00:28:12;;;;;;;33.78;20.02;;;;;;;;;;5004889;28;20341;-46
2024/03/13 00:30:39;;;;;;;29.23;21.30;;;;;;;;;;5004747;28;20018;-41
2024/03/13 00:33:07;;;;;;;32.63;20.23;;;;;;;;;;5004740;28;20195;-46
2024/03/13 00:35:35;;;;;;;25.55;20.15;;;;;;;;;;5004616;28;20053;-48
2024/03/13 00:38:03;;;;;;;27.98;20.20;;;;;;;;;;5004615;28;20029;-46
2024/03/13 00:40:30;;;;;;;35.13;20.67;;;;;;;;;;5004303;28;20105;-41
2024/03/13 00:42:56;;;;;;;48.78;21.83;;;;;;;;;;5004639;28;20090;-39
2024/03/13 00:45:23;;;;;;;34.63;20.77;;;;;;;;;;5004590;28;20251;-38
2024/03/13 00:47:50;;;;;;;61.67;23.20;;;;;;;;;;5004975;28;20033;-36
2024/03/13 00:50:16;;;;;;;40.03;20.33;;;;;;;;;;5003911;28;20081;-41
2024/03/13 00:52:43;;;;;;;35.33;20.73;;;;;;;;;;5004766;28;20384;-37
2024/03/13 00:55:10;;;;;;;33.58;20.80;;;;;;;;;;5004365;28;20031;-35
2024/03/13 00:57:41;;;;;;;31.67;21.00;;;;;;;;;;5004311;28;20061;-38
2024/03/13 01:00:09;;;;;;;30.47;20.53;;;;;;;;;;5004641;28;20073;-45
2024/03/13 01:02:36;;;;;;;29.83;20.38;;;;;;;;;;5004739;28;20022;-37
2024/03/13 01:05:05;;;;;;;27.70;21.40;;;;;;;;;;5004342;28;20098;-43
2024/03/13 01:07:31;;;;;;;33.65;22.05;;;;;;;;;;5004659;28;20186;-36
2024/03/13 01:10:02;;;;;;;32.03;21.63;;;;;;;;;;5004365;28;20080;-40
2024/03/13 01:12:29;;;;;;;35.10;22.48;;;;;;;;;;5004467;28;20026;-48
2024/03/13 01:14:56;;;;;;;33.20;22.85;;;;;;;;;;5004084;28;20035;-39
2024/03/13 01:17:22;;;;;;;30.27;22.48;;;;;;;;;;5004652;28;20076;-44
2024/03/13 01:19:49;;;;;;;28.67;21.15;;;;;;;;;;5004204;28;20030;-47
2024/03/13 01:22:17;;;;;;;28.42;22.63;;;;;;;;;;5004535;28;20172;-49
2024/03/13 01:24:45;;;;;;;28.98;21.65;;;;;;;;;;5004072;28;20089;-47
2024/03/13 01:27:12;;;;;;;29.63;22.70;;;;;;;;;;5004375;28;20069;-49
2024/03/13 01:29:41;;;;;;;26.88;22.33;;;;;;;;;;5004241;28;20045;-43
2024/03/13 01:32:11;;;;;;;25.50;21.77;;;;;;;;;;5004390;28;20014;-44
2024/03/13 01:34:37;;;;;;;27.75;21.58;;;;;;;;;;4986435;28;20373;-44
2024/03/13 01:39:51;;;;;;;32.75;22.17;;;;;;;;;;5003742;28;20057;-44
2024/03/13 01:56:27;;;;;;;28.73;21.65;;;;;;;;;;5003886;28;20119;-44
2024/03/13 01:59:19;;;;;;;31.25;20.65;;;;;;;;;;5003660;28;20034;-51
2024/03/13 02:04:31;;;;;;;28.13;20.80;;;;;;;;;;5007573;28;20034;-43
2024/03/13 02:06:59;;;;;;;28.83;21.05;;;;;;;;;;5007856;28;20310;-52
2024/03/13 02:09:26;;;;;;;23.60;20.63;;;;;;;;;;5007530;28;20265;-43
2024/03/13 02:11:52;;;;;;;28.00;21.83;;;;;;;;;;5007799;28;20084;-47
2024/03/13 02:14:20;;;;;;;25.40;20.55;;;;;;;;;;5007416;28;20342;-43
2024/03/13 02:16:51;;;;;;;32.35;21.25;;;;;;;;;;5007409;28;20030;-46
2024/03/13 02:19:18;;;;;;;26.90;22.02;;;;;;;;;;5007315;28;20031;-38
2024/03/13 02:21:47;;;;;;;40.15;22.27;;;;;;;;;;5007596;28;20025;-41
2024/03/13 02:24:13;;;;;;;35.72;22.60;;;;;;;;;;5007361;28;20348;-35
2024/03/13 02:26:40;;;;;;;33.58;23.38;;;;;;;;;;5007672;28;20022;-37
2024/03/13 02:29:08;;;;;;;29.33;22.55;;;;;;;;;;5007129;28;20057;-42
2024/03/13 02:31:36;;;;;;;30.42;22.48;;;;;;;;;;5007348;28;20022;-45
2024/03/13 02:34:04;;;;;;;25.92;23.23;;;;;;;;;;5007165;28;20041;-42
2024/03/13 02:36:31;;;;;;;33.97;22.65;;;;;;;;;;5007106;28;20081;-45
2024/03/13 02:38:58;;;;;;;29.48;22.88;;;;;;;;;;5006866;28;20035;-40
2024/03/13 02:41:24;;;;;;;25.65;22.75;;;;;;;;;;5006851;28;20044;-49
2024/03/13 02:43:51;;;;;;;30.15;23.58;;;;;;;;;;5006854;28;20026;-42
2024/03/13 02:46:18;;;;;;;24.60;22.02;;;;;;;;;;5006819;28;20030;-40
2024/03/13 02:48:49;;;;;;;27.35;23.27;;;;;;;;;;5006712;28;20037;-41
2024/03/13 02:51:16;;;;;;;25.05;22.35;;;;;;;;;;5006975;28;20018;-47
2024/03/13 02:53:43;;;;;;;25.65;22.73;;;;;;;;;;5006616;28;20030;-41
2024/03/13 02:56:09;;;;;;;26.75;23.30;;;;;;;;;;5006761;28;20030;-45
2024/03/13 02:58:36;;;;;;;32.47;23.38;;;;;;;;;;5006677;28;20018;-43
2024/03/13 03:01:03;;;;;;;26.70;22.70;;;;;;;;;;5006535;28;20026;-50
2024/03/13 03:03:30;;;;;;;26.88;23.75;;;;;;;;;;5006440;28;20030;-45
2024/03/13 03:05:57;;;;;;;24.98;22.45;;;;;;;;;;5006432;28;20033;-46
2024/03/13 03:08:23;;;;;;;25.40;22.42;;;;;;;;;;5006379;28;20376;-45
2024/03/13 03:10:50;;;;;;;26.33;23.52;;;;;;;;;;5006560;28;20026;-42
2024/03/13 03:13:16;;;;;;;25.75;23.15;;;;;;;;;;5005456;28;20068;-50
2024/03/13 03:15:44;;;;;;;25.63;23.15;;;;;;;;;;5006171;28;20022;-46
2024/03/13 03:18:11;;;;;;;25.70;22.98;;;;;;;;;;5006496;28;20269;-48
2024/03/13 03:20:38;;;;;;;26.80;23.73;;;;;;;;;;5006097;28;20019;-49
2024/03/13 03:23:04;;;;;;;33.72;24.15;;;;;;;;;;5006111;28;20210;-43
2024/03/13 03:25:31;;;;;;;27.83;24.30;;;;;;;;;;5006133;28;20022;-48
2024/03/13 03:27:58;;;;;;;28.98;23.90;;;;;;;;;;5006194;28;20045;-41
2024/03/13 03:30:30;;;;;;;31.33;24.35;;;;;;;;;;5005948;28;20322;-41
2024/03/13 03:32:58;;;;;;;27.73;24.73;;;;;;;;;;5006247;28;20061;-47
2024/03/13 03:35:24;;;;;;;30.67;24.85;;;;;;;;;;5005804;28;20275;-41
2024/03/13 03:37:51;;;;;;;29.73;24.52;;;;;;;;;;5006259;28;20248;-40
2024/03/13 03:40:18;;;;;;;28.15;23.50;;;;;;;;;;5005714;28;20061;-41
2024/03/13 03:42:46;;;;;;;30.83;24.92;;;;;;;;;;5006337;28;20026;-40
2024/03/13 03:45:13;;;;;;;33.92;24.27;;;;;;;;;;5005596;28;20027;-35
2024/03/13 03:47:39;;;;;;;40.97;26.33;;;;;;;;;;5006142;28;20026;-35
2024/03/13 03:50:07;;;;;;;44.28;28.05;;;;;;;;;;5005775;28;20022;-36
2024/03/13 03:52:34;;;;;;;41.63;30.02;;;;;;;;;;5005926;28;20030;-36
2024/03/13 03:55:02;;;;;;;43.28;29.15;;;;;;;;;;5005472;28;20089;-36
2024/03/13 03:57:29;;;;;;;39.45;27.73;;;;;;;;;;5005934;28;20042;-35
2024/03/13 03:59:55;;;;;;;34.95;28.15;;;;;;;;;;5005545;28;20253;-36
2024/03/13 04:02:22;;;;;;;32.13;27.48;;;;;;;;;;5005887;28;20026;-36
2024/03/13 04:04:49;;;;;;;34.65;26.77;;;;;;;;;;5005410;28;20022;-36
2024/03/13 04:07:16;;;;;;;36.42;27.60;;;;;;;;;;5005531;28;20022;-35
2024/03/13 04:09:42;;;;;;;33.17;26.52;;;;;;;;;;5005571;28;20030;-36
2024/03/13 04:12:09;;;;;;;32.25;26.30;;;;;;;;;;5005641;28;20014;-45
2024/03/13 04:14:37;;;;;;;30.90;25.50;;;;;;;;;;5005033;28;20082;-37
2024/03/13 04:17:03;;;;;;;27.50;24.40;;;;;;;;;;5005490;28;20323;-35
2024/03/13 04:19:30;;;;;;;27.40;24.45;;;;;;;;;;5005085;28;20018;-40
2024/03/13 04:21:58;;;;;;;27.98;24.60;;;;;;;;;;5005221;28;20085;-39
2024/03/13 04:24:25;;;;;;;27.98;24.63;;;;;;;;;;5005212;28;20049;-41
2024/03/13 04:26:51;;;;;;;28.58;24.77;;;;;;;;;;5005339;28;20105;-36
2024/03/13 04:29:20;;;;;;;26.48;23.67;;;;;;;;;;5004896;28;20250;-36
2024/03/13 04:31:47;;;;;;;28.60;24.17;;;;;;;;;;5005187;28;20364;-35
2024/03/13 04:34:13;;;;;;;27.98;24.45;;;;;;;;;;5004950;28;20175;-37
2024/03/13 04:36:40;;;;;;;29.08;25.27;;;;;;;;;;5004887;28;20085;-38
2024/03/13 04:39:07;;;;;;;30.77;25.33;;;;;;;;;;5005039;28;20026;-38
2024/03/13 04:41:39;;;;;;;29.08;24.20;;;;;;;;;;5004730;28;20049;-35
2024/03/13 04:44:12;;;;;;;28.30;24.52;;;;;;;;;;5004683;28;20026;-36
2024/03/13 04:46:39;;;;;;;29.65;25.55;;;;;;;;;;5004862;28;20233;-36
2024/03/13 04:49:08;;;;;;;28.17;25.25;;;;;;;;;;5004744;28;20032;-43
2024/03/13 04:51:34;;;;;;;27.60;24.88;;;;;;;;;;5004876;28;20033;-40
2024/03/13 04:54:01;;;;;;;27.42;24.52;;;;;;;;;;5004784;28;20031;-38
2024/03/13 04:56:28;;;;;;;27.42;24.73;;;;;;;;;;5004668;28;20030;-45
2024/03/13 04:58:55;;;;;;;27.48;24.73;;;;;;;;;;5004595;28;20045;-41
2024/03/13 05:01:21;;;;;;;29.05;24.63;;;;;;;;;;5004706;28;20018;-41
2024/03/13 05:03:49;;;;;;;27.48;24.45;;;;;;;;;;5004808;28;20027;-40
2024/03/13 05:06:15;;;;;;;27.80;24.25;;;;;;;;;;5004588;28;20022;-39
2024/03/13 05:08:42;;;;;;;26.98;23.83;;;;;;;;;;5004547;28;20034;-40
2024/03/13 05:11:09;;;;;;;27.15;24.15;;;;;;;;;;5004608;28;20251;-44
2024/03/13 05:13:38;;;;;;;27.33;24.48;;;;;;;;;;5004170;28;20203;-46
2024/03/13 05:16:05;;;;;;;27.08;24.30;;;;;;;;;;5004395;28;20026;-39
2024/03/13 05:18:34;;;;;;;27.10;24.02;;;;;;;;;;5004310;28;20034;-47
2024/03/13 05:21:01;;;;;;;28.00;23.75;;;;;;;;;;5004411;28;20038;-47
2024/03/13 05:23:28;;;;;;;27.98;24.63;;;;;;;;;;5004209;28;20323;-40
2024/03/13 05:25:55;;;;;;;29.83;24.55;;;;;;;;;;5004330;28;20026;-39
2024/03/13 05:28:22;;;;;;;31.58;24.95;;;;;;;;;;5004105;28;20341;-48
2024/03/13 05:30:49;;;;;;;27.15;24.15;;;;;;;;;;5004336;28;20073;-42
2024/03/13 05:33:16;;;;;;;27.52;24.48;;;;;;;;;;5004248;28;20034;-37
2024/03/13 05:35:43;;;;;;;27.77;23.65;;;;;;;;;;5006118;28;20045;-39
2024/03/13 05:38:10;;;;;;;31.77;25.23;;;;;;;;;;5008186;28;20034;-39
2024/03/13 05:40:37;;;;;;;26.30;23.45;;;;;;;;;;5007807;28;20372;-39
2024/03/13 05:43:04;;;;;;;32.30;24.67;;;;;;;;;;5007861;28;20050;-42
2024/03/13 05:45:30;;;;;;;29.15;24.90;;;;;;;;;;5008030;28;20025;-36
2024/03/13 05:47:57;;;;;;;28.30;25.27;;;;;;;;;;5008054;28;20041;-40
2024/03/13 05:50:23;;;;;;;29.63;25.60;;;;;;;;;;5007851;28;20022;-41
2024/03/13 05:52:50;;;;;;;27.77;24.60;;;;;;;;;;5008383;28;20030;-40
2024/03/13 05:55:17;;;;;;;26.83;23.75;;;;;;;;;;5007705;28;20052;-42
2024/03/13 05:57:44;;;;;;;27.77;24.75;;;;;;;;;;5008074;28;20018;-45
2024/03/13 06:00:17;;;;;;;27.08;24.15;;;;;;;;;;5007699;28;20025;-46
2024/03/13 06:02:44;;;;;;;27.88;24.55;;;;;;;;;;5008163;28;20045;-39
2024/03/13 06:05:14;;;;;;;28.02;24.30;;;;;;;;;;5007546;28;20064;-41
2024/03/13 06:07:41;;;;;;;27.48;24.65;;;;;;;;;;5008055;28;20306;-40
2024/03/13 06:10:11;;;;;;;27.65;24.67;;;;;;;;;;5007605;28;20056;-43
2024/03/13 06:12:38;;;;;;;29.05;24.48;;;;;;;;;;5007824;28;20028;-37
2024/03/13 06:15:12;;;;;;;27.67;24.30;;;;;;;;;;5007433;28;20033;-43
2024/03/13 06:17:38;;;;;;;27.08;24.05;;;;;;;;;;5007811;28;20018;-39
2024/03/13 06:20:17;;;;;;;27.85;24.90;;;;;;;;;;5007386;28;20026;-42
2024/03/13 06:22:44;;;;;;;27.33;24.58;;;;;;;;;;5007776;28;20198;-40
2024/03/13 06:25:12;;;;;;;26.95;24.25;;;;;;;;;;5007199;28;20034;-45
2024/03/13 06:27:39;;;;;;;27.30;24.50;;;;;;;;;;5007661;28;20030;-44
2024/03/13 06:30:06;;;;;;;26.75;24.15;;;;;;;;;;5007292;28;20030;-43
2024/03/13 06:32:32;;;;;;;27.05;24.25;;;;;;;;;;5007457;28;20263;-43
2024/03/13 06:35:00;;;;;;;28.50;24.25;;;;;;;;;;5007200;28;20030;-42
2024/03/13 06:37:28;;;;;;;27.45;24.48;;;;;;;;;;5007403;28;20018;-43
2024/03/13 06:39:57;;;;;;;27.00;24.13;;;;;;;;;;5006670;28;20052;-43
2024/03/13 06:42:26;;;;;;;27.27;24.42;;;;;;;;;;5007344;28;20026;-40
2024/03/13 06:44:53;;;;;;;26.55;23.67;;;;;;;;;;5007012;28;20022;-44
2024/03/13 06:47:20;;;;;;;27.23;24.40;;;;;;;;;;5005895;28;20323;-38
2024/03/13 06:49:47;;;;;;;26.83;24.23;;;;;;;;;;5006836;28;20250;-41
2024/03/13 06:52:13;;;;;;;25.73;23.05;;;;;;;;;;5007209;28;20022;-45
2024/03/13 06:54:40;;;;;;;25.42;22.85;;;;;;;;;;5006534;28;20090;-38
2024/03/13 06:57:09;;;;;;;27.38;24.30;;;;;;;;;;5007111;28;20030;-43
2024/03/13 06:59:44;;;;;;;26.33;23.75;;;;;;;;;;5006669;28;20026;-40
2024/03/13 07:02:13;;;;;;;26.65;24.15;;;;;;;;;;5006836;28;20022;-43
2024/03/13 07:04:40;;;;;;;27.58;24.85;;;;;;;;;;5006693;28;20033;-38
2024/03/13 07:07:07;;;;;;;26.58;23.98;;;;;;;;;;5006811;28;20042;-44
2024/03/13 07:09:33;;;;;;;26.95;24.25;;;;;;;;;;5007046;28;20322;-43
2024/03/13 07:12:00;;;;;;;27.23;24.20;;;;;;;;;;5006729;28;20042;-39
2024/03/13 07:14:27;;;;;;;26.45;23.67;;;;;;;;;;5006416;28;20022;-45
2024/03/13 07:16:53;;;;;;;27.33;24.17;;;;;;;;;;5006370;28;20037;-39
2024/03/13 07:19:21;;;;;;;27.15;24.48;;;;;;;;;;5006290;28;20022;-44
2024/03/13 07:21:48;;;;;;;28.90;26.00;;;;;;;;;;5006480;28;20206;-42
2024/03/13 07:24:16;;;;;;;27.83;24.98;;;;;;;;;;5006081;28;20318;-45
2024/03/13 07:26:43;;;;;;;28.35;25.40;;;;;;;;;;5006494;28;20033;-38
2024/03/13 07:29:10;;;;;;;28.60;25.38;;;;;;;;;;5006066;28;20033;-38
2024/03/13 07:31:39;;;;;;;29.48;26.38;;;;;;;;;;5006140;28;20042;-40
2024/03/13 07:34:09;;;;;;;27.92;25.15;;;;;;;;;;5006075;28;20026;-35
2024/03/13 07:36:37;;;;;;;30.00;26.35;;;;;;;;;;5005984;28;20215;-36
2024/03/13 07:39:10;;;;;;;28.80;25.85;;;;;;;;;;5005910;28;20338;-40
2024/03/13 07:41:37;;;;;;;29.42;26.27;;;;;;;;;;5005907;28;20152;-35
2024/03/13 07:44:03;;;;;;;28.73;25.48;;;;;;;;;;5005722;28;20022;-36
2024/03/13 07:46:30;;;;;;;31.42;25.42;;;;;;;;;;5005991;28;20069;-39
2024/03/13 07:48:56;;;;;;;28.90;26.20;;;;;;;;;;5005811;28;20034;-42
2024/03/13 07:51:23;;;;;;;29.50;26.48;;;;;;;;;;5005771;28;20030;-42
2024/03/13 07:53:50;;;;;;;30.02;27.15;;;;;;;;;;5005719;28;20033;-40
2024/03/13 07:56:18;;;;;;;29.48;26.50;;;;;;;;;;5005595;28;20144;-43
2024/03/13 07:58:44;;;;;;;29.15;26.38;;;;;;;;;;5005036;28;20092;-40
2024/03/13 08:01:11;;;;;;;30.58;27.17;;;;;;;;;;5005627;28;20029;-41
2024/03/13 08:03:37;;;;;;;29.30;26.23;;;;;;;;;;5005572;28;20318;-38
2024/03/13 08:06:04;;;;;;;30.35;27.15;;;;;;;;;;5005449;28;20333;-40
2024/03/13 08:08:30;;;;;;;31.20;27.70;;;;;;;;;;5005704;28;20361;-35
2024/03/13 08:10:57;;;;;;;29.25;26.33;;;;;;;;;;5005548;28;20369;-42
2024/03/13 08:13:25;;;;;;;28.98;26.17;;;;;;;;;;5005531;28;20314;-35
2024/03/13 08:15:52;;;;;;;28.95;25.88;;;;;;;;;;5005343;28;20106;-35
2024/03/13 08:18:20;;;;;;;29.95;26.98;;;;;;;;;;5005242;28;20026;-42
2024/03/13 08:20:48;;;;;;;28.55;25.42;;;;;;;;;;5005153;28;20026;-38
2024/03/13 08:23:15;;;;;;;28.00;25.10;;;;;;;;;;5005061;28;20037;-39
2024/03/13 08:25:43;;;;;;;26.98;24.17;;;;;;;;;;5005039;28;20037;-39
2024/03/13 08:28:10;;;;;;;26.40;23.70;;;;;;;;;;5005000;28;20326;-47
2024/03/13 08:30:37;;;;;;;25.35;22.52;;;;;;;;;;5004860;28;20068;-41
2024/03/13 08:33:04;;;;;;;26.55;23.05;;;;;;;;;;5004933;28;20229;-44
2024/03/13 08:35:30;;;;;;;23.40;21.15;;;;;;;;;;5004874;28;20022;-39
2024/03/13 08:37:59;;;;;;;28.65;21.55;;;;;;;;;;5005039;28;20319;-41
2024/03/13 08:40:28;;;;;;;37.00;22.90;;;;;;;;;;5004635;28;20230;-44
2024/03/13 08:42:58;;;;;;;45.65;22.80;;;;;;;;;;5005235;28;20027;-48
2024/03/13 08:45:25;;;;;;;45.63;22.92;;;;;;;;;;5004702;28;20035;-42
2024/03/13 08:47:55;;;;;;;58.33;23.63;;;;;;;;;;5005130;28;20034;-43
2024/03/13 08:50:22;;;;;;;44.88;22.90;;;;;;;;;;5004772;28;20030;-43
2024/03/13 08:52:48;;;;;;;38.80;23.25;;;;;;;;;;5005144;28;20022;-42
2024/03/13 08:55:17;;;;;;;33.42;22.88;;;;;;;;;;5004543;28;20026;-39
2024/03/13 08:57:45;;;;;;;36.55;23.65;;;;;;;;;;5004818;28;20037;-46
2024/03/13 09:00:11;;;;;;;31.75;23.05;;;;;;;;;;5004505;28;20372;-41
2024/03/13 09:02:38;;;;;;;44.83;24.75;;;;;;;;;;5004990;28;20299;-44
2024/03/13 09:05:05;;;;;;;52.83;25.27;;;;;;;;;;5004257;28;20030;-45
2024/03/13 09:07:32;;;;;;;46.30;24.83;;;;;;;;;;5004812;28;20038;-45
2024/03/13 09:09:59;;;;;;;37.72;25.13;;;;;;;;;;5003807;28;20342;-40
2024/03/13 09:12:25;;;;;;;34.20;25.00;;;;;;;;;;5004555;28;20034;-41
2024/03/13 09:14:52;;;;;;;27.13;24.20;;;;;;;;;;5004415;28;20033;-46
2024/03/13 09:17:18;;;;;;;31.35;25.35;;;;;;;;;;5004705;28;20026;-44
2024/03/13 09:19:49;;;;;;;29.75;25.60;;;;;;;;;;5004292;28;20028;-45
2024/03/13 09:22:17;;;;;;;29.75;25.83;;;;;;;;;;5004786;28;20025;-46
2024/03/13 09:24:44;;;;;;;30.58;26.08;;;;;;;;;;5004232;28;20022;-46
2024/03/13 09:27:11;;;;;;;31.08;25.90;;;;;;;;;;5004485;28;20306;-41
2024/03/13 09:29:37;;;;;;;29.65;25.75;;;;;;;;;;5004235;28;20218;-39
2024/03/13 09:32:04;;;;;;;29.23;26.30;;;;;;;;;;5004568;28;20293;-36
2024/03/13 09:34:31;;;;;;;28.17;25.33;;;;;;;;;;5004045;28;20044;-40
2024/03/13 09:36:59;;;;;;;28.90;25.98;;;;;;;;;;5004288;28;20381;-38
2024/03/13 09:39:26;;;;;;;28.15;25.33;;;;;;;;;;5003792;28;20337;-40
2024/03/13 09:41:54;;;;;;;28.95;26.05;;;;;;;;;;5004309;28;20027;-37
2024/03/13 09:44:20;;;;;;;29.60;26.58;;;;;;;;;;5004035;28;20023;-37
2024/03/13 09:46:48;;;;;;;34.08;27.90;;;;;;;;;;5004482;28;20085;-36
2024/03/13 09:49:15;;;;;;;30.77;27.63;;;;;;;;;;5003899;28;20090;-40
2024/03/13 09:51:45;;;;;;;29.67;26.70;;;;;;;;;;5004281;28;20126;-43
2024/03/13 09:54:20;;;;;;;30.20;27.02;;;;;;;;;;5004041;28;20219;-38
2024/03/13 09:56:47;;;;;;;33.53;26.98;;;;;;;;;;5003952;28;20050;-44
2024/03/13 09:59:14;;;;;;;29.55;26.73;;;;;;;;;;5004018;28;20033;-41
2024/03/13 10:01:46;;;;;;;29.48;26.77;;;;;;;;;;5004043;28;20042;-38
2024/03/13 10:04:22;;;;;;;30.17;27.13;;;;;;;;;;5003763;28;20188;-42
2024/03/13 10:06:53;;;;;;;30.90;28.00;;;;;;;;;;5004101;28;20030;-45
2024/03/13 10:09:23;;;;;;;30.67;27.45;;;;;;;;;;5003680;28;20223;-44
2024/03/13 10:11:51;;;;;;;29.75;26.77;;;;;;;;;;5004053;28;20023;-49
2024/03/13 10:14:22;;;;;;;29.33;26.45;;;;;;;;;;5003795;28;20050;-41
2024/03/13 10:16:52;;;;;;;28.88;25.98;;;;;;;;;;5003879;28;20325;-45
2024/03/13 10:19:20;;;;;;;30.30;26.92;;;;;;;;;;5003812;28;20047;-45
2024/03/13 10:21:49;;;;;;;32.03;26.00;;;;;;;;;;5005924;28;20050;-43
2024/03/13 10:24:18;;;;;;;31.13;26.55;;;;;;;;;;5007219;28;20056;-35
2024/03/13 10:26:46;;;;;;;31.58;26.77;;;;;;;;;;5007444;28;20310;-40
2024/03/13 10:29:13;;;;;;;31.27;27.05;;;;;;;;;;5007194;28;20314;-43
2024/03/13 10:31:39;;;;;;;30.63;26.27;;;;;;;;;;5007595;28;20071;-40
2024/03/13 10:34:07;;;;;;;30.02;26.88;;;;;;;;;;5007267;28;20031;-36
2024/03/13 10:36:34;;;;;;;29.45;26.30;;;;;;;;;;5007272;28;20022;-35
2024/03/13 10:39:01;;;;;;;30.25;27.13;;;;;;;;;;5007088;28;20064;-40
2024/03/13 10:41:31;;;;;;;31.63;27.75;;;;;;;;;;5006918;28;20046;-37
2024/03/13 10:44:00;;;;;;;30.48;27.15;;;;;;;;;;5006845;28;20018;-38
2024/03/13 10:46:26;;;;;;;31.08;27.73;;;;;;;;;;5007010;28;20037;-36
2024/03/13 10:48:54;;;;;;;30.17;27.38;;;;;;;;;;5006951;28;20038;-37
2024/03/13 10:51:23;;;;;;;33.40;27.63;;;;;;;;;;5006892;28;20033;-39
2024/03/13 10:53:49;;;;;;;30.85;27.63;;;;;;;;;;5006786;28;20032;-41
2024/03/13 10:56:18;;;;;;;31.75;28.50;;;;;;;;;;5006549;28;20030;-36
2024/03/13 10:58:49;;;;;;;31.63;28.40;;;;;;;;;;5006543;28;20022;-35
2024/03/13 11:01:16;;;;;;;32.08;28.77;;;;;;;;;;5006698;28;20034;-43
2024/03/13 11:03:46;;;;;;;32.45;28.95;;;;;;;;;;5006668;28;20078;-48
2024/03/13 11:06:16;;;;;;;35.30;31.40;;;;;;;;;;5006371;28;20090;-41
2024/03/13 11:08:43;;;;;;;42.72;38.17;;;;;;;;;;5006606;28;20093;-36
2024/03/13 11:11:14;;;;;;;50.63;45.17;;;;;;;;;;5006504;28;20018;-37
2024/03/13 11:13:54;;;;;;;65.63;53.67;;;;;;;;;;5006223;28;20034;-35
2024/03/13 11:16:24;;;;;;;72.68;58.28;;;;;;;;;;5006336;28;20027;-35
2024/03/13 11:18:55;;;;;;;68.50;54.08;;;;;;;;;;5006149;28;20187;-43
2024/03/13 11:21:35;;;;;;;68.03;53.15;;;;;;;;;;5006607;28;20306;-40
2024/03/13 11:24:03;;;;;;;63.40;51.85;;;;;;;;;;5006049;28;20066;-40
2024/03/13 11:26:39;;;;;;;64.15;50.55;;;;;;;;;;5006396;28;20175;-38
2024/03/13 11:29:06;;;;;;;72.82;53.35;;;;;;;;;;5006172;28;20034;-38
2024/03/13 11:31:33;;;;;;;72.20;51.92;;;;;;;;;;5006121;28;20022;-40
2024/03/13 11:34:02;;;;;;;70.15;49.92;;;;;;;;;;5005622;28;20030;-45
2024/03/13 11:36:29;;;;;;;70.97;49.22;;;;;;;;;;5006079;28;20032;-40
2024/03/13 11:38:56;;;;;;;87.63;51.40;;;;;;;;;;5005819;28;20399;-37
2024/03/13 11:41:23;;;;;;;94.53;55.50;;;;;;;;;;5005871;28;20074;-37
2024/03/13 11:43:50;;;;;;;110.93;58.78;;;;;;;;;;5005752;28;20037;-37
2024/03/13 11:46:22;;;;;;;128.63;55.78;;;;;;;;;;5005901;28;20219;-38
2024/03/13 11:48:49;;;;;;;116.35;51.10;;;;;;;;;;5005649;28;20349;-42
2024/03/13 11:51:17;;;;;;;110.70;48.75;;;;;;;;;;5005725;28;20325;-36
2024/03/13 11:53:45;;;;;;;97.45;46.80;;;;;;;;;;5005524;28;20053;-35
2024/03/13 11:56:21;;;;;;;83.40;46.55;;;;;;;;;;5005541;28;20034;-40
2024/03/13 11:58:48;;;;;;;69.47;44.10;;;;;;;;;;5005335;28;20022;-36
2024/03/13 12:01:15;;;;;;;60.60;40.15;;;;;;;;;;5005588;28;20022;-38
2024/03/13 12:03:45;;;;;;;54.30;37.67;;;;;;;;;;5005639;28;20025;-35
2024/03/13 12:06:23;;;;;;;48.90;35.35;;;;;;;;;;5005315;28;20048;-40
2024/03/13 12:08:51;;;;;;;48.22;34.65;;;;;;;;;;5005474;28;20369;-39
2024/03/13 12:11:18;;;;;;;43.92;32.53;;;;;;;;;;5005392;28;20305;-36
2024/03/13 12:13:45;;;;;;;37.60;32.28;;;;;;;;;;5005281;28;20038;-39
2024/03/13 12:16:20;;;;;;;39.17;31.27;;;;;;;;;;5005335;28;20027;-35
2024/03/13 12:18:55;;;;;;;36.40;31.05;;;;;;;;;;5005255;28;20064;-38
2024/03/13 12:21:23;;;;;;;36.08;32.28;;;;;;;;;;5005317;28;20048;-44
2024/03/13 12:23:52;;;;;;;36.85;30.55;;;;;;;;;;5005308;28;20030;-38
2024/03/13 12:26:24;;;;;;;35.33;30.92;;;;;;;;;;5004867;28;20022;-38
2024/03/13 12:28:50;;;;;;;;;;;;;;;;;;5005450;28;20133;-41
2024/03/13 12:31:17;;;;;;;41.58;31.23;;;;;;;;;;5005105;28;19908;-41
2024/03/13 12:33:48;;;;;;;37.15;30.30;;;;;;;;;;5004964;28;20037;-50
2024/03/13 12:36:16;;;;;;;41.35;31.95;;;;;;;;;;5004829;28;20210;-46
2024/03/13 12:38:44;;;;;;;38.20;31.05;;;;;;;;;;5004640;28;20069;-44
2024/03/13 12:41:11;;;;;;;34.45;30.48;;;;;;;;;;5004707;28;20054;-46
2024/03/13 12:43:40;;;;;;;37.28;30.48;;;;;;;;;;5004611;28;20042;-41
2024/03/13 12:46:06;;;;;;;38.90;29.88;;;;;;;;;;5003824;28;20089;-43
2024/03/13 12:48:33;;;;;;;37.65;30.42;;;;;;;;;;5004699;28;20030;-45
2024/03/13 12:51:01;;;;;;;37.88;30.13;;;;;;;;;;5005102;28;20073;-40
2024/03/13 12:53:31;;;;;;;34.75;29.77;;;;;;;;;;5004476;28;20058;-41
2024/03/13 12:55:58;;;;;;;37.20;30.23;;;;;;;;;;5004527;28;20322;-42
2024/03/13 12:58:28;;;;;;;40.10;29.30;;;;;;;;;;5004548;28;20371;-42
2024/03/13 13:00:55;;;;;;;49.33;29.92;;;;;;;;;;5004388;28;20247;-45
2024/03/13 13:03:22;;;;;;;49.90;31.15;;;;;;;;;;5004583;28;20060;-40
2024/03/13 13:05:49;;;;;;;69.28;30.83;;;;;;;;;;5004404;28;20029;-43
2024/03/13 13:08:16;;;;;;;39.85;28.95;;;;;;;;;;5004368;28;20334;-41
2024/03/13 13:10:42;;;;;;;49.75;31.98;;;;;;;;;;5004515;28;20077;-41
2024/03/13 13:13:09;;;;;;;41.83;30.48;;;;;;;;;;5004759;28;20034;-45
2024/03/13 13:15:37;;;;;;;38.42;30.88;;;;;;;;;;5004035;28;20222;-40
2024/03/13 13:18:05;;;;;;;40.80;30.92;;;;;;;;;;5004306;28;20022;-41
2024/03/13 13:20:33;;;;;;;36.67;30.42;;;;;;;;;;5004536;28;20021;-42
2024/03/13 13:22:59;;;;;;;46.78;31.40;;;;;;;;;;5004120;28;20223;-40
2024/03/13 13:25:26;;;;;;;42.88;30.92;;;;;;;;;;5004286;28;20026;-45
2024/03/13 13:27:54;;;;;;;45.97;31.13;;;;;;;;;;5004603;28;20022;-41
2024/03/13 13:30:21;;;;;;;42.22;30.35;;;;;;;;;;5004050;28;20041;-40
2024/03/13 13:32:50;;;;;;;40.03;29.23;;;;;;;;;;5004687;28;20041;-43
2024/03/13 13:35:17;;;;;;;39.67;29.65;;;;;;;;;;5004340;28;20089;-43
2024/03/13 13:37:44;;;;;;;44.28;28.60;;;;;;;;;;5004479;28;20023;-40
2024/03/13 13:40:14;;;;;;;46.05;28.85;;;;;;;;;;5003911;28;20054;-41
2024/03/13 13:42:41;;;;;;;39.33;28.35;;;;;;;;;;5004527;28;20026;-44
2024/03/13 13:45:09;;;;;;;33.22;27.35;;;;;;;;;;5003964;28;20019;-44
2024/03/13 13:47:39;;;;;;;35.70;27.73;;;;;;;;;;5004446;28;20026;-44
2024/03/13 13:50:10;;;;;;;33.75;27.42;;;;;;;;;;5004149;28;20026;-43
2024/03/13 13:52:41;;;;;;;47.03;27.40;;;;;;;;;;5004493;28;20027;-41
2024/03/13 13:55:10;;;;;;;42.95;27.63;;;;;;;;;;5003932;28;20056;-41
2024/03/13 13:57:39;;;;;;;43.38;26.63;;;;;;;;;;5007099;28;20050;-45
2024/03/13 14:00:10;;;;;;;41.97;26.38;;;;;;;;;;5007957;28;20081;-48
2024/03/13 14:02:39;;;;;;;38.47;27.33;;;;;;;;;;5008311;28;20022;-49
2024/03/13 14:05:06;;;;;;;33.88;25.60;;;;;;;;;;5007623;28;20018;-48
2024/03/13 14:07:34;;;;;;;32.40;25.95;;;;;;;;;;5008110;28;20022;-44
2024/03/13 14:10:22;;;;;;;37.85;26.20;;;;;;;;;;5007609;28;20057;-43
2024/03/13 14:12:48;;;;;;;31.05;26.17;;;;;;;;;;5007759;28;20061;-48
2024/03/13 14:15:17;;;;;;;31.25;25.63;;;;;;;;;;5007408;28;20368;-43
2024/03/13 14:17:47;;;;;;;30.77;25.55;;;;;;;;;;5007943;28;20027;-42
2024/03/13 14:20:18;;;;;;;30.27;25.27;;;;;;;;;;5007412;28;20080;-49
2024/03/13 14:22:48;;;;;;;34.00;25.43;;;;;;;;;;5007815;28;20082;-40
2024/03/13 14:25:15;;;;;;;28.77;25.67;;;;;;;;;;5007174;28;20030;-49
2024/03/13 14:27:42;;;;;;;27.73;24.73;;;;;;;;;;5007784;28;20026;-42
2024/03/13 14:30:09;;;;;;;28.83;25.70;;;;;;;;;;5007426;28;20033;-42
2024/03/13 14:32:36;;;;;;;33.47;25.92;;;;;;;;;;5007443;28;20026;-42
2024/03/13 14:35:03;;;;;;;29.40;26.25;;;;;;;;;;5007020;28;20041;-48
2024/03/13 14:37:31;;;;;;;28.65;25.63;;;;;;;;;;5007482;28;20026;-44
2024/03/13 14:39:58;;;;;;;29.05;25.90;;;;;;;;;;5006693;28;20330;-41